Time;durP1;ratioP1;P1;durP2;ratioP2;P2;SDS_P1;SDS_P2;PMS_P1;PMS_P2;Temp;Humidity;BMP_temperature;BMP_pressure;BME280_temperature;BME280_humidity;BME280_pressure;Samples;Min_cycle;Max_cycle;Signal;HPM_P1;HPM_P2
2023/03/28 00:01:12;;;;;;;6.53;1.70;;;;;;;;;;4973325;28;20225;-71
2023/03/28 00:03:41;;;;;;;15.20;1.97;;;;;;;;;;4972496;28;20273;-71
2023/03/28 00:06:10;;;;;;;9.63;2.00;;;;;;;;;;4970443;28;20214;-70
2023/03/28 00:08:38;;;;;;;5.40;1.60;;;;;;;;;;4973932;28;20492;-71
2023/03/28 00:11:03;;;;;;;7.47;1.97;;;;;;;;;;4973347;28;20474;-70
2023/03/28 00:13:28;;;;;;;8.03;1.83;;;;;;;;;;4973263;28;20495;-71
2023/03/28 00:15:54;;;;;;;7.83;2.37;;;;;;;;;;4975012;28;20300;-71
2023/03/28 00:18:19;;;;;;;7.67;2.03;;;;;;;;;;4974439;28;20210;-71
2023/03/28 00:20:45;;;;;;;6.97;2.00;;;;;;;;;;4973322;28;20192;-71
2023/03/28 00:23:10;;;;;;;4.47;1.37;;;;;;;;;;4974482;28;20641;-70
2023/03/28 00:25:38;;;;;;;5.03;1.77;;;;;;;;;;4971415;28;20217;-70
2023/03/28 00:28:04;;;;;;;6.43;1.40;;;;;;;;;;4970297;28;20786;-71
2023/03/28 00:30:29;;;;;;;7.20;1.43;;;;;;;;;;4972662;28;20468;-71
2023/03/28 00:32:56;;;;;;;8.27;1.63;;;;;;;;;;4966464;28;20548;-70
2023/03/28 00:35:21;;;;;;;6.20;2.00;;;;;;;;;;4967412;28;20209;-70
2023/03/28 00:37:49;;;;;;;9.33;2.33;;;;;;;;;;4966941;28;20464;-71
2023/03/28 00:40:14;;;;;;;6.00;2.03;;;;;;;;;;4977172;28;20337;-71
2023/03/28 00:42:41;;;;;;;8.40;1.60;;;;;;;;;;4972282;28;21005;-71
2023/03/28 00:45:08;;;;;;;7.60;1.63;;;;;;;;;;4964540;28;20229;-70
2023/03/28 00:47:42;;;;;;;5.70;1.50;;;;;;;;;;4981219;28;20438;-71
2023/03/28 00:50:22;;;;;;;3.80;1.60;;;;;;;;;;4974898;28;20973;-71
2023/03/28 00:52:52;;;;;;;9.07;1.80;;;;;;;;;;4959937;28;20459;-71
2023/03/28 00:55:38;;;;;;;5.03;1.40;;;;;;;;;;4965433;28;20442;-71
2023/03/28 00:58:06;;;;;;;7.97;1.93;;;;;;;;;;4965235;28;20525;-71
2023/03/28 01:00:33;;;;;;;4.27;1.40;;;;;;;;;;4971959;28;20957;-71
2023/03/28 01:03:00;;;;;;;4.03;0.90;;;;;;;;;;4969627;28;20453;-70
2023/03/28 01:05:26;;;;;;;3.07;1.10;;;;;;;;;;4970575;28;20461;-70
2023/03/28 01:07:54;;;;;;;6.17;1.40;;;;;;;;;;4965884;28;20442;-71
2023/03/28 01:10:20;;;;;;;4.70;1.47;;;;;;;;;;4968465;28;20469;-70
2023/03/28 01:12:46;;;;;;;2.50;1.47;;;;;;;;;;4967650;28;20430;-71
2023/03/28 01:15:12;;;;;;;4.83;1.37;;;;;;;;;;4964793;28;20506;-71
2023/03/28 01:17:37;;;;;;;5.43;1.70;;;;;;;;;;4971604;28;20185;-71
2023/03/28 01:20:16;;;;;;;8.43;1.97;;;;;;;;;;4972935;28;20336;-71
2023/03/28 01:22:59;;;;;;;6.60;1.70;;;;;;;;;;4976608;28;20181;-71
2023/03/28 01:25:48;;;;;;;5.87;2.00;;;;;;;;;;4971583;28;20536;-71
2023/03/28 01:28:23;;;;;;;8.40;1.93;;;;;;;;;;4970577;28;20440;-71
2023/03/28 01:31:06;;;;;;;6.60;1.43;;;;;;;;;;4969277;28;20473;-71
2023/03/28 01:33:38;;;;;;;7.23;1.90;;;;;;;;;;4975441;28;20907;-71
2023/03/28 01:36:06;;;;;;;10.67;1.93;;;;;;;;;;4971865;28;20468;-70
2023/03/28 01:38:31;;;;;;;7.23;1.40;;;;;;;;;;4976276;28;20476;-71
2023/03/28 01:41:04;;;;;;;2.90;0.93;;;;;;;;;;4974226;28;20473;-71
2023/03/28 01:43:42;;;;;;;3.30;1.00;;;;;;;;;;4971732;28;20193;-71
2023/03/28 01:46:07;;;;;;;5.23;1.47;;;;;;;;;;4970237;28;21057;-71
2023/03/28 01:48:39;;;;;;;4.67;1.07;;;;;;;;;;4971972;28;20533;-71
2023/03/28 01:51:07;;;;;;;5.63;1.20;;;;;;;;;;4973322;28;20300;-70
2023/03/28 01:53:44;;;;;;;2.27;0.80;;;;;;;;;;4970149;28;21081;-70
2023/03/28 01:56:14;;;;;;;4.43;1.10;;;;;;;;;;4977729;28;21428;-70
2023/03/28 01:58:39;;;;;;;4.13;1.07;;;;;;;;;;4972035;28;20873;-71
2023/03/28 02:01:07;;;;;;;6.77;1.43;;;;;;;;;;4971145;28;20445;-71
2023/03/28 02:03:38;;;;;;;3.30;1.00;;;;;;;;;;4971821;28;20599;-71
2023/03/28 02:06:05;;;;;;;4.10;1.20;;;;;;;;;;4973103;28;20469;-71
2023/03/28 02:08:33;;;;;;;6.10;1.50;;;;;;;;;;4971192;28;20991;-71
2023/03/28 02:10:58;;;;;;;5.50;1.43;;;;;;;;;;4974584;28;20468;-71
2023/03/28 02:13:29;;;;;;;3.33;1.00;;;;;;;;;;4977864;28;20433;-71
2023/03/28 02:15:56;;;;;;;4.30;1.30;;;;;;;;;;4968686;28;20585;-70
2023/03/28 02:18:25;;;;;;;3.23;1.20;;;;;;;;;;4972986;28;20445;-71
2023/03/28 02:20:55;;;;;;;6.20;1.63;;;;;;;;;;4974799;28;20527;-70
2023/03/28 02:23:24;;;;;;;5.67;1.90;;;;;;;;;;4977572;28;20448;-71
2023/03/28 02:25:50;;;;;;;5.67;1.53;;;;;;;;;;4974530;28;20946;-70
2023/03/28 02:28:16;;;;;;;4.27;1.93;;;;;;;;;;4970834;28;20472;-71
2023/03/28 02:30:41;;;;;;;5.40;1.30;;;;;;;;;;4973659;28;20221;-70
2023/03/28 02:33:27;;;;;;;4.03;1.13;;;;;;;;;;4975129;28;20468;-70
2023/03/28 02:35:57;;;;;;;3.87;1.20;;;;;;;;;;4990061;28;20793;-70
2023/03/28 02:38:29;;;;;;;3.30;1.27;;;;;;;;;;4972640;28;20437;-71
2023/03/28 02:40:58;;;;;;;2.87;1.17;;;;;;;;;;4973983;28;20437;-71
2023/03/28 02:43:32;;;;;;;4.80;1.10;;;;;;;;;;4974720;28;20446;-71
2023/03/28 02:46:00;;;;;;;3.90;1.23;;;;;;;;;;4973222;28;20492;-71
2023/03/28 02:48:35;;;;;;;6.33;1.33;;;;;;;;;;4971120;28;20468;-70
2023/03/28 02:51:05;;;;;;;3.97;1.50;;;;;;;;;;4971859;28;20468;-71
2023/03/28 02:53:31;;;;;;;4.60;1.40;;;;;;;;;;4967492;28;20433;-71
2023/03/28 02:55:59;;;;;;;8.93;1.63;;;;;;;;;;4975414;28;20490;-71
2023/03/28 02:58:28;;;;;;;4.83;1.47;;;;;;;;;;4974642;28;20448;-70
2023/03/28 03:00:53;;;;;;;7.53;1.50;;;;;;;;;;4973109;28;20433;-71
2023/03/28 03:03:18;;;;;;;4.73;1.80;;;;;;;;;;4975379;28;20447;-71
2023/03/28 03:05:44;;;;;;;7.63;1.80;;;;;;;;;;4971213;28;20305;-70
2023/03/28 03:08:10;;;;;;;2.73;1.03;;;;;;;;;;4976601;28;20651;-71
2023/03/28 03:10:35;;;;;;;3.63;1.43;;;;;;;;;;4973249;28;20293;-71
2023/03/28 03:13:01;;;;;;;8.90;2.10;;;;;;;;;;4971534;28;21025;-71
2023/03/28 03:15:29;;;;;;;6.27;1.67;;;;;;;;;;4970678;28;20206;-71
2023/03/28 03:17:55;;;;;;;6.23;1.63;;;;;;;;;;4969123;28;20186;-70
2023/03/28 03:20:21;;;;;;;7.07;1.70;;;;;;;;;;4974051;28;20993;-71
2023/03/28 03:22:46;;;;;;;10.00;2.10;;;;;;;;;;4970144;28;20186;-71
2023/03/28 03:25:12;;;;;;;5.33;1.50;;;;;;;;;;4974797;28;20770;-70
2023/03/28 03:27:39;;;;;;;6.43;2.10;;;;;;;;;;4973102;28;20700;-71
2023/03/28 03:30:05;;;;;;;7.93;2.30;;;;;;;;;;4971767;28;20255;-71
2023/03/28 03:32:30;;;;;;;6.97;2.00;;;;;;;;;;4976855;28;20880;-71
2023/03/28 03:34:55;;;;;;;13.07;2.50;;;;;;;;;;4971474;28;20183;-70
2023/03/28 03:37:21;;;;;;;9.53;2.27;;;;;;;;;;4969712;28;21232;-71
2023/03/28 03:39:46;;;;;;;12.80;1.83;;;;;;;;;;4974235;28;20595;-71
2023/03/28 03:42:12;;;;;;;10.73;2.10;;;;;;;;;;4970916;28;20243;-71
2023/03/28 03:44:37;;;;;;;6.20;1.63;;;;;;;;;;4971940;28;20190;-71
2023/03/28 03:47:03;;;;;;;5.10;1.77;;;;;;;;;;4972131;28;20292;-71
2023/03/28 03:49:28;;;;;;;3.93;1.27;;;;;;;;;;4969876;28;20194;-71
2023/03/28 03:51:53;;;;;;;7.03;1.73;;;;;;;;;;4971010;28;20186;-70
2023/03/28 03:54:19;;;;;;;7.47;1.97;;;;;;;;;;4975005;28;20182;-71
2023/03/28 03:56:44;;;;;;;7.80;1.60;;;;;;;;;;4968605;28;20199;-71
2023/03/28 03:59:10;;;;;;;7.90;2.00;;;;;;;;;;4974115;28;20673;-71
2023/03/28 04:01:38;;;;;;;6.80;2.00;;;;;;;;;;4970793;28;20213;-71
2023/03/28 04:04:03;;;;;;;11.53;2.67;;;;;;;;;;4972292;28;20445;-71
2023/03/28 04:06:28;;;;;;;9.97;2.87;;;;;;;;;;4972005;28;20469;-71
2023/03/28 04:08:54;;;;;;;6.67;2.13;;;;;;;;;;4967515;28;20639;-71
2023/03/28 04:11:19;;;;;;;8.37;1.70;;;;;;;;;;4971386;28;20211;-71
2023/03/28 04:13:44;;;;;;;10.90;2.63;;;;;;;;;;4971778;28;20183;-71
2023/03/28 04:16:10;;;;;;;8.07;2.10;;;;;;;;;;4975982;28;20193;-70
2023/03/28 04:18:36;;;;;;;12.00;2.33;;;;;;;;;;4972832;28;20174;-71
2023/03/28 04:21:01;;;;;;;7.43;1.63;;;;;;;;;;4974938;28;20463;-71
2023/03/28 04:23:27;;;;;;;6.63;2.20;;;;;;;;;;4968950;28;20187;-71
2023/03/28 04:25:56;;;;;;;10.03;2.53;;;;;;;;;;4968566;28;20291;-71
2023/03/28 04:28:24;;;;;;;7.73;2.47;;;;;;;;;;4969981;28;20553;-71
2023/03/28 04:30:59;;;;;;;5.70;2.07;;;;;;;;;;4969627;28;20464;-71
2023/03/28 04:33:24;;;;;;;5.70;1.90;;;;;;;;;;4970113;28;20436;-71
2023/03/28 04:35:58;;;;;;;5.00;1.50;;;;;;;;;;4974391;28;20465;-71
2023/03/28 04:38:27;;;;;;;8.73;2.00;;;;;;;;;;4974515;28;20174;-71
2023/03/28 04:40:56;;;;;;;10.57;2.37;;;;;;;;;;4970135;28;20460;-71
2023/03/28 04:43:22;;;;;;;10.13;2.13;;;;;;;;;;4968797;28;20542;-71
2023/03/28 04:45:47;;;;;;;7.50;2.23;;;;;;;;;;4969159;28;20479;-71
2023/03/28 04:48:12;;;;;;;8.30;2.20;;;;;;;;;;4971653;28;20424;-71
2023/03/28 04:50:38;;;;;;;5.27;1.80;;;;;;;;;;4967831;28;20198;-71
2023/03/28 04:53:03;;;;;;;9.07;2.23;;;;;;;;;;4965164;28;20187;-70
2023/03/28 04:55:28;;;;;;;6.53;1.97;;;;;;;;;;4976659;28;20242;-71
2023/03/28 04:57:54;;;;;;;7.30;2.03;;;;;;;;;;4977247;28;20182;-71
2023/03/28 05:00:21;;;;;;;4.60;1.87;;;;;;;;;;4978152;28;20220;-72
2023/03/28 05:02:46;;;;;;;11.90;2.03;;;;;;;;;;4977277;28;20194;-71
2023/03/28 05:05:11;;;;;;;5.20;1.90;;;;;;;;;;4974824;28;20469;-71
2023/03/28 05:07:37;;;;;;;3.50;1.40;;;;;;;;;;4974277;28;20236;-71
2023/03/28 05:10:02;;;;;;;4.97;1.97;;;;;;;;;;4973489;28;20725;-70
2023/03/28 05:12:28;;;;;;;11.93;1.90;;;;;;;;;;4974506;28;20183;-71
2023/03/28 05:14:53;;;;;;;5.30;1.83;;;;;;;;;;4972281;28;20182;-71
2023/03/28 05:17:18;;;;;;;6.90;1.87;;;;;;;;;;4977120;28;20202;-70
2023/03/28 05:19:43;;;;;;;6.30;1.80;;;;;;;;;;4972928;28;20182;-71
2023/03/28 05:22:09;;;;;;;7.10;1.57;;;;;;;;;;4962449;28;20193;-71
2023/03/28 05:24:34;;;;;;;9.23;1.73;;;;;;;;;;4963883;28;20753;-71
2023/03/28 05:26:59;;;;;;;6.70;1.43;;;;;;;;;;4974554;28;20225;-71
2023/03/28 05:29:25;;;;;;;6.50;1.83;;;;;;;;;;4970126;28;20217;-71
2023/03/28 05:31:50;;;;;;;7.20;2.03;;;;;;;;;;4962773;28;20240;-71
2023/03/28 05:34:15;;;;;;;12.17;2.00;;;;;;;;;;4964866;28;20554;-71
2023/03/28 05:36:41;;;;;;;6.60;2.10;;;;;;;;;;4972216;28;20304;-71
2023/03/28 05:39:07;;;;;;;5.80;1.90;;;;;;;;;;4966064;28;20320;-70
2023/03/28 05:41:32;;;;;;;7.93;2.10;;;;;;;;;;4960827;28;20452;-71
2023/03/28 05:43:57;;;;;;;6.87;2.03;;;;;;;;;;4963170;28;20240;-71
2023/03/28 05:46:23;;;;;;;4.20;1.37;;;;;;;;;;4967972;28;21092;-71
2023/03/28 05:48:48;;;;;;;5.87;2.10;;;;;;;;;;4965699;28;20190;-70
2023/03/28 05:51:13;;;;;;;10.43;2.33;;;;;;;;;;4973400;28;20206;-71
2023/03/28 05:53:39;;;;;;;8.43;2.70;;;;;;;;;;4977976;28;20308;-70
2023/03/28 05:56:04;;;;;;;7.53;3.43;;;;;;;;;;4976876;28;20919;-71
2023/03/28 05:58:30;;;;;;;10.10;4.03;;;;;;;;;;4972972;28;20184;-71
2023/03/28 06:00:56;;;;;;;9.93;6.23;;;;;;;;;;4975888;28;20277;-71
2023/03/28 06:03:21;;;;;;;9.90;6.50;;;;;;;;;;4978368;28;20216;-71
2023/03/28 06:05:47;;;;;;;10.83;4.20;;;;;;;;;;4971209;28;20958;-71
2023/03/28 06:08:12;;;;;;;6.93;3.17;;;;;;;;;;4970996;28;20255;-70
2023/03/28 06:10:37;;;;;;;3.57;1.73;;;;;;;;;;4969116;28;20298;-71
2023/03/28 06:13:03;;;;;;;8.00;2.07;;;;;;;;;;4978521;28;20673;-70
2023/03/28 06:15:28;;;;;;;7.30;2.20;;;;;;;;;;4978049;28;20200;-70
2023/03/28 06:17:53;;;;;;;10.67;1.90;;;;;;;;;;4974813;28;20632;-71
2023/03/28 06:20:19;;;;;;;7.13;1.70;;;;;;;;;;4973611;28;20252;-71
2023/03/28 06:22:44;;;;;;;3.97;1.30;;;;;;;;;;4972647;28;20576;-70
2023/03/28 06:25:09;;;;;;;4.33;1.60;;;;;;;;;;4976795;28;20589;-71
2023/03/28 06:27:35;;;;;;;4.47;1.27;;;;;;;;;;4976951;28;20654;-70
2023/03/28 06:30:00;;;;;;;8.17;2.03;;;;;;;;;;4972542;28;20206;-70
2023/03/28 06:32:27;;;;;;;7.57;1.73;;;;;;;;;;4978965;28;20582;-70
2023/03/28 06:34:52;;;;;;;5.60;1.70;;;;;;;;;;4974114;28;20186;-70
2023/03/28 06:37:17;;;;;;;3.60;1.30;;;;;;;;;;4975251;28;20425;-70
2023/03/28 06:39:43;;;;;;;9.07;1.80;;;;;;;;;;4980416;28;20204;-72
2023/03/28 06:42:11;;;;;;;4.13;1.40;;;;;;;;;;4976742;28;20178;-70
2023/03/28 06:44:36;;;;;;;7.30;1.70;;;;;;;;;;4978532;28;20190;-71
2023/03/28 06:47:02;;;;;;;9.23;1.40;;;;;;;;;;4977215;28;20800;-70
2023/03/28 06:49:27;;;;;;;4.10;1.60;;;;;;;;;;4977466;28;20266;-71
2023/03/28 06:51:52;;;;;;;7.97;1.93;;;;;;;;;;4971225;28;20631;-71
2023/03/28 06:54:18;;;;;;;3.67;1.30;;;;;;;;;;4974875;28;20696;-71
2023/03/28 06:56:43;;;;;;;4.17;1.37;;;;;;;;;;4972890;28;20237;-71
2023/03/28 06:59:08;;;;;;;6.43;1.77;;;;;;;;;;4975616;28;20185;-70
2023/03/28 07:01:33;;;;;;;8.03;2.00;;;;;;;;;;4976576;28;20186;-72
2023/03/28 07:04:00;;;;;;;7.13;2.07;;;;;;;;;;4977337;28;20604;-72
2023/03/28 07:06:26;;;;;;;8.10;1.60;;;;;;;;;;4975631;28;20210;-72
2023/03/28 07:08:52;;;;;;;8.20;2.33;;;;;;;;;;4974509;28;20445;-72
2023/03/28 07:11:17;;;;;;;12.60;2.00;;;;;;;;;;4972980;28;20206;-72
2023/03/28 07:13:42;;;;;;;6.00;1.23;;;;;;;;;;4974766;28;20178;-71
2023/03/28 07:16:12;;;;;;;6.43;1.70;;;;;;;;;;4975550;28;20207;-71
2023/03/28 07:18:37;;;;;;;11.80;2.13;;;;;;;;;;4987495;28;20718;-71
2023/03/28 07:21:08;;;;;;;7.40;1.70;;;;;;;;;;4976642;28;20421;-72
2023/03/28 07:23:34;;;;;;;11.53;2.60;;;;;;;;;;4977701;28;20450;-71
2023/03/28 07:25:59;;;;;;;11.17;1.70;;;;;;;;;;4975486;28;20498;-71
2023/03/28 07:28:25;;;;;;;5.90;1.90;;;;;;;;;;4977920;28;20193;-71
2023/03/28 07:30:52;;;;;;;3.93;1.43;;;;;;;;;;4975633;28;20682;-71
2023/03/28 07:33:17;;;;;;;7.10;1.63;;;;;;;;;;4976431;28;20663;-71
2023/03/28 07:35:42;;;;;;;9.60;2.47;;;;;;;;;;4976867;28;20454;-71
2023/03/28 07:38:08;;;;;;;7.83;2.00;;;;;;;;;;4977379;28;20271;-71
2023/03/28 07:40:34;;;;;;;11.63;2.17;;;;;;;;;;4978441;28;20654;-71
2023/03/28 07:42:59;;;;;;;11.50;2.17;;;;;;;;;;4978037;28;20429;-71
2023/03/28 07:45:25;;;;;;;9.50;1.80;;;;;;;;;;4975570;28;20674;-72
2023/03/28 07:47:50;;;;;;;6.00;1.50;;;;;;;;;;4974101;28;20620;-71
2023/03/28 07:50:15;;;;;;;10.43;1.93;;;;;;;;;;4974647;28;20624;-71
2023/03/28 07:52:44;;;;;;;9.23;2.47;;;;;;;;;;4978393;28;20548;-71
2023/03/28 07:55:10;;;;;;;9.93;2.50;;;;;;;;;;4976801;28;20202;-72
2023/03/28 07:57:35;;;;;;;7.03;2.07;;;;;;;;;;4977805;28;20414;-71
2023/03/28 08:00:00;;;;;;;7.47;1.80;;;;;;;;;;4977172;28;20537;-72
2023/03/28 08:02:26;;;;;;;8.10;2.10;;;;;;;;;;4976199;28;20231;-71
2023/03/28 08:04:52;;;;;;;8.00;2.00;;;;;;;;;;4974915;28;20190;-71
2023/03/28 08:07:19;;;;;;;8.10;1.93;;;;;;;;;;4977125;28;20247;-71
2023/03/28 08:09:44;;;;;;;9.00;2.00;;;;;;;;;;4975828;28;20428;-71
2023/03/28 08:12:09;;;;;;;12.93;2.33;;;;;;;;;;4975777;28;20418;-71
2023/03/28 08:14:34;;;;;;;5.43;1.40;;;;;;;;;;4977692;28;20184;-71
2023/03/28 08:17:00;;;;;;;5.63;1.73;;;;;;;;;;4973254;28;20233;-72
2023/03/28 08:19:25;;;;;;;4.63;1.77;;;;;;;;;;4979199;28;20181;-71
2023/03/28 08:21:50;;;;;;;8.30;2.60;;;;;;;;;;4973450;28;20182;-71
2023/03/28 08:24:16;;;;;;;11.70;3.10;;;;;;;;;;4974778;28;20178;-72
2023/03/28 08:26:41;;;;;;;7.27;1.73;;;;;;;;;;4975239;28;20427;-71
2023/03/28 08:29:06;;;;;;;6.53;2.40;;;;;;;;;;4978818;28;20182;-71
2023/03/28 08:31:31;;;;;;;10.20;2.03;;;;;;;;;;4978543;28;20216;-71
2023/03/28 08:33:57;;;;;;;12.33;2.97;;;;;;;;;;4979050;28;20661;-71
2023/03/28 08:36:23;;;;;;;7.13;2.37;;;;;;;;;;4978672;28;20660;-71
2023/03/28 08:38:49;;;;;;;9.20;1.70;;;;;;;;;;4978108;28;20612;-71
2023/03/28 08:41:32;;;;;;;7.77;2.07;;;;;;;;;;4980334;28;20425;-71
2023/03/28 08:44:10;;;;;;;4.97;1.70;;;;;;;;;;4979963;28;20190;-71
2023/03/28 08:46:36;;;;;;;6.47;2.07;;;;;;;;;;4976406;28;20457;-71
2023/03/28 08:49:06;;;;;;;8.30;1.73;;;;;;;;;;4977796;28;20459;-71
2023/03/28 08:51:34;;;;;;;3.83;1.40;;;;;;;;;;4978131;28;20526;-71
2023/03/28 08:54:15;;;;;;;4.97;1.50;;;;;;;;;;4978635;28;20452;-71
2023/03/28 08:56:45;;;;;;;7.20;1.90;;;;;;;;;;4980588;28;20448;-71
2023/03/28 08:59:12;;;;;;;5.40;1.73;;;;;;;;;;4980575;28;20499;-71
2023/03/28 09:01:38;;;;;;;5.83;1.37;;;;;;;;;;4980917;28;21057;-71
2023/03/28 09:04:04;;;;;;;5.37;1.70;;;;;;;;;;4978414;28;20441;-71
2023/03/28 09:06:36;;;;;;;11.77;6.10;;;;;;;;;;4979456;28;20257;-71
2023/03/28 09:09:03;;;;;;;7.93;2.20;;;;;;;;;;4979304;28;20425;-71
2023/03/28 09:11:31;;;;;;;7.87;2.20;;;;;;;;;;4980738;28;20551;-71
2023/03/28 09:14:03;;;;;;;9.10;3.33;;;;;;;;;;4968982;28;20433;-71
2023/03/28 09:16:28;;;;;;;6.47;1.50;;;;;;;;;;4978653;28;20437;-71
2023/03/28 09:19:03;;;;;;;7.10;1.77;;;;;;;;;;4971375;28;20874;-72
2023/03/28 09:21:47;;;;;;;7.10;1.70;;;;;;;;;;4972365;28;20185;-71
2023/03/28 09:24:31;;;;;;;11.37;1.33;;;;;;;;;;4972781;28;21055;-71
2023/03/28 09:27:01;;;;;;;7.63;1.57;;;;;;;;;;4980601;28;20823;-71
2023/03/28 09:29:28;;;;;;;5.60;1.27;;;;;;;;;;4977400;28;20428;-71
2023/03/28 09:32:04;;;;;;;4.27;1.20;;;;;;;;;;4977362;28;20472;-71
2023/03/28 09:34:37;;;;;;;7.03;1.33;;;;;;;;;;4976688;28;20444;-71
2023/03/28 09:37:15;;;;;;;5.57;1.30;;;;;;;;;;4974102;28;20499;-70
2023/03/28 09:39:47;;;;;;;3.17;1.37;;;;;;;;;;4975088;28;20429;-71
2023/03/28 09:42:19;;;;;;;3.90;1.60;;;;;;;;;;4978514;28;20423;-70
2023/03/28 09:44:50;;;;;;;12.43;1.47;;;;;;;;;;4974766;28;20433;-70
2023/03/28 09:47:15;;;;;;;3.83;1.53;;;;;;;;;;4969922;28;20796;-71
2023/03/28 09:49:41;;;;;;;4.63;1.57;;;;;;;;;;4961997;28;20433;-71
2023/03/28 09:52:20;;;;;;;4.20;1.50;;;;;;;;;;4976887;28;20179;-71
2023/03/28 09:54:45;;;;;;;4.93;1.60;;;;;;;;;;4979061;28;20178;-71
2023/03/28 09:57:11;;;;;;;4.37;1.47;;;;;;;;;;4978669;28;20432;-70
2023/03/28 09:59:36;;;;;;;6.47;1.70;;;;;;;;;;4979488;28;20261;-71
2023/03/28 10:02:02;;;;;;;4.80;1.47;;;;;;;;;;4969884;28;20186;-70
2023/03/28 10:04:28;;;;;;;3.53;1.07;;;;;;;;;;4980339;28;20292;-71
2023/03/28 10:07:13;;;;;;;3.53;1.10;;;;;;;;;;4976656;28;20587;-71
2023/03/28 10:09:49;;;;;;;2.27;0.90;;;;;;;;;;4975261;28;20185;-71
2023/03/28 10:12:23;;;;;;;12.50;1.67;;;;;;;;;;4981479;28;20433;-71
2023/03/28 10:14:49;;;;;;;3.60;1.10;;;;;;;;;;4977589;28;20442;-71
2023/03/28 10:17:25;;;;;;;3.87;1.20;;;;;;;;;;4979246;28;20425;-71
2023/03/28 10:19:52;;;;;;;3.90;1.00;;;;;;;;;;4978788;28;20188;-71
2023/03/28 10:22:22;;;;;;;6.30;1.47;;;;;;;;;;4978360;28;20421;-71
2023/03/28 10:24:48;;;;;;;5.43;1.60;;;;;;;;;;4977550;28;20425;-71
2023/03/28 10:27:25;;;;;;;7.90;1.70;;;;;;;;;;4978598;28;20937;-71
2023/03/28 10:29:52;;;;;;;5.27;1.37;;;;;;;;;;4978610;28;20205;-71
2023/03/28 10:32:37;;;;;;;4.87;1.30;;;;;;;;;;4977133;28;20446;-71
2023/03/28 10:35:06;;;;;;;5.30;1.67;;;;;;;;;;4977798;28;20453;-71
2023/03/28 10:37:32;;;;;;;2.83;1.00;;;;;;;;;;4978499;28;20421;-71
2023/03/28 10:39:59;;;;;;;4.53;1.63;;;;;;;;;;4976229;28;20918;-71
2023/03/28 10:42:24;;;;;;;2.20;0.90;;;;;;;;;;4972111;28;20512;-71
2023/03/28 10:45:13;;;;;;;5.83;1.47;;;;;;;;;;4977998;28;21207;-71
2023/03/28 10:47:39;;;;;;;4.70;1.37;;;;;;;;;;4963829;28;20192;-71
2023/03/28 10:50:05;;;;;;;3.67;1.30;;;;;;;;;;4977598;28;20492;-70
2023/03/28 10:52:51;;;;;;;2.57;0.90;;;;;;;;;;4978380;28;20879;-71
2023/03/28 10:55:18;;;;;;;3.67;1.17;;;;;;;;;;4975849;28;20235;-71
2023/03/28 10:57:59;;;;;;;4.73;1.00;;;;;;;;;;4977845;28;20427;-71
2023/03/28 11:00:33;;;;;;;4.70;0.90;;;;;;;;;;4976587;28;20448;-71
2023/03/28 11:03:01;;;;;;;1.90;0.90;;;;;;;;;;4978551;28;20805;-70
2023/03/28 11:05:32;;;;;;;3.43;1.10;;;;;;;;;;4976947;28;20448;-70
2023/03/28 11:08:18;;;;;;;3.83;1.20;;;;;;;;;;4975780;28;20430;-70
2023/03/28 11:13:51;;;;;;;3.93;1.23;;;;;;;;;;4990904;28;20482;-71
2023/03/28 11:16:34;;;;;;;3.43;1.13;;;;;;;;;;5003018;28;20476;-74
2023/03/28 11:19:07;;;;;;;5.60;1.20;;;;;;;;;;5003770;28;20529;-71
2023/03/28 11:21:42;;;;;;;3.17;1.17;;;;;;;;;;5000565;28;20443;-72
2023/03/28 11:24:23;;;;;;;3.50;1.33;;;;;;;;;;4995876;28;20471;-72
2023/03/28 11:26:55;;;;;;;3.77;1.23;;;;;;;;;;4994828;28;20440;-71
2023/03/28 11:29:31;;;;;;;5.10;1.17;;;;;;;;;;4994827;28;21022;-72
2023/03/28 11:31:56;;;;;;;4.20;0.90;;;;;;;;;;4998045;28;20506;-72
2023/03/28 11:34:33;;;;;;;5.53;1.00;;;;;;;;;;4995696;28;20456;-72
2023/03/28 11:37:06;;;;;;;4.67;1.10;;;;;;;;;;4996383;28;20208;-72
2023/03/28 11:39:46;;;;;;;5.27;1.33;;;;;;;;;;4993462;28;20433;-72
2023/03/28 11:42:14;;;;;;;5.10;1.00;;;;;;;;;;4990579;28;20457;-72
2023/03/28 11:45:03;;;;;;;5.10;1.00;;;;;;;;;;5007152;28;20440;-72
2023/03/28 11:47:56;;;;;;;2.77;0.90;;;;;;;;;;5017029;28;20456;-72
2023/03/28 11:50:27;;;;;;;3.30;0.93;;;;;;;;;;4992702;28;20851;-72
2023/03/28 11:53:01;;;;;;;4.33;1.50;;;;;;;;;;4996954;28;21055;-72
2023/03/28 11:55:40;;;;;;;2.97;1.07;;;;;;;;;;4977581;28;20433;-72
2023/03/28 11:58:23;;;;;;;5.37;1.20;;;;;;;;;;4996540;28;20448;-72
2023/03/28 12:01:00;;;;;;;4.40;1.10;;;;;;;;;;4996077;28;20423;-72
2023/03/28 12:03:37;;;;;;;2.70;1.10;;;;;;;;;;4995272;28;20427;-72
2023/03/28 12:06:04;;;;;;;3.23;1.67;;;;;;;;;;4994923;28;20786;-72
2023/03/28 12:08:34;;;;;;;4.20;1.20;;;;;;;;;;4996636;28;20436;-72
2023/03/28 12:11:05;;;;;;;7.77;1.23;;;;;;;;;;4995100;28;20769;-72
2023/03/28 12:13:49;;;;;;;4.03;1.10;;;;;;;;;;4993915;28;20437;-72
2023/03/28 12:16:20;;;;;;;3.17;1.60;;;;;;;;;;4985213;28;20535;-73
2023/03/28 12:18:48;;;;;;;4.87;1.10;;;;;;;;;;4992880;28;20441;-73
2023/03/28 12:21:22;;;;;;;2.90;1.20;;;;;;;;;;4995705;28;20432;-72
2023/03/28 12:23:47;;;;;;;6.17;1.30;;;;;;;;;;4997307;28;20458;-72
2023/03/28 12:26:20;;;;;;;4.40;1.20;;;;;;;;;;4991670;28;20489;-72
2023/03/28 12:28:49;;;;;;;5.13;1.20;;;;;;;;;;4995353;28;20661;-72
2023/03/28 12:31:20;;;;;;;4.97;1.40;;;;;;;;;;4991856;28;21046;-72
2023/03/28 12:33:45;;;;;;;5.40;1.30;;;;;;;;;;4985967;28;20897;-73
2023/03/28 12:36:19;;;;;;;2.10;1.13;;;;;;;;;;4994301;28;20439;-72
2023/03/28 12:38:57;;;;;;;3.20;1.20;;;;;;;;;;4990776;28;20181;-72
2023/03/28 12:41:25;;;;;;;4.20;1.20;;;;;;;;;;4995156;28;21129;-72
2023/03/28 12:44:03;;;;;;;3.50;1.20;;;;;;;;;;4976496;28;20578;-71
2023/03/28 12:46:33;;;;;;;4.27;1.50;;;;;;;;;;4986844;28;20466;-72
2023/03/28 12:49:07;;;;;;;6.00;1.40;;;;;;;;;;4991829;28;20424;-72
2023/03/28 12:51:35;;;;;;;4.77;1.50;;;;;;;;;;4993644;28;20472;-72
2023/03/28 12:54:15;;;;;;;5.20;1.97;;;;;;;;;;4994531;28;20436;-72
2023/03/28 12:56:45;;;;;;;5.00;1.53;;;;;;;;;;4996003;28;20435;-72
2023/03/28 12:59:29;;;;;;;3.67;1.80;;;;;;;;;;5007145;28;20494;-72
2023/03/28 13:01:55;;;;;;;7.53;1.50;;;;;;;;;;4998141;28;20854;-73
2023/03/28 13:04:30;;;;;;;5.23;1.30;;;;;;;;;;4997316;28;20425;-72
2023/03/28 13:07:06;;;;;;;3.57;1.00;;;;;;;;;;4996984;28;20413;-72
2023/03/28 13:09:46;;;;;;;3.80;1.13;;;;;;;;;;4993092;28;20507;-72
2023/03/28 13:12:11;;;;;;;6.17;1.30;;;;;;;;;;4990662;28;20471;-72
2023/03/28 13:14:41;;;;;;;2.57;1.27;;;;;;;;;;4998895;28;20453;-72
2023/03/28 13:17:18;;;;;;;4.40;1.17;;;;;;;;;;4997975;28;20200;-73
2023/03/28 13:19:43;;;;;;;4.30;1.20;;;;;;;;;;4999512;28;20477;-72
2023/03/28 13:22:29;;;;;;;1.90;1.00;;;;;;;;;;4998260;28;20935;-72
2023/03/28 13:25:14;;;;;;;5.03;1.47;;;;;;;;;;4999287;28;20190;-72
2023/03/28 13:27:39;;;;;;;3.57;0.97;;;;;;;;;;4996874;28;20893;-72
2023/03/28 13:30:07;;;;;;;3.63;1.57;;;;;;;;;;4993831;28;20463;-72
2023/03/28 13:32:43;;;;;;;5.07;1.80;;;;;;;;;;5003109;28;20201;-72
2023/03/28 13:35:28;;;;;;;5.13;1.43;;;;;;;;;;4999536;28;20520;-72
2023/03/28 13:37:53;;;;;;;3.57;1.20;;;;;;;;;;4996321;28;20964;-72
2023/03/28 13:40:38;;;;;;;3.30;1.33;;;;;;;;;;4996416;28;20516;-72
2023/03/28 13:43:03;;;;;;;4.40;1.70;;;;;;;;;;4999010;28;20288;-73
2023/03/28 13:45:28;;;;;;;4.13;1.70;;;;;;;;;;4997722;28;20510;-72
2023/03/28 13:47:54;;;;;;;2.43;1.27;;;;;;;;;;4995878;28;20551;-73
2023/03/28 13:50:27;;;;;;;3.87;1.40;;;;;;;;;;4994031;28;20213;-73
2023/03/28 13:52:52;;;;;;;1.43;1.00;;;;;;;;;;4998431;28;20294;-73
2023/03/28 13:55:22;;;;;;;2.20;1.10;;;;;;;;;;4998863;28;20473;-73
2023/03/28 13:57:48;;;;;;;3.17;1.40;;;;;;;;;;4996946;28;20188;-72
2023/03/28 14:00:15;;;;;;;4.07;1.23;;;;;;;;;;4995896;28;20437;-73
2023/03/28 14:02:50;;;;;;;3.10;1.20;;;;;;;;;;4994132;28;20611;-73
2023/03/28 14:05:21;;;;;;;4.73;1.10;;;;;;;;;;5014008;28;20424;-72
2023/03/28 14:07:46;;;;;;;3.27;1.30;;;;;;;;;;4997752;28;20449;-72
2023/03/28 14:10:26;;;;;;;2.13;0.93;;;;;;;;;;4999062;28;20510;-73
2023/03/28 14:12:52;;;;;;;3.77;1.30;;;;;;;;;;5011490;28;20766;-73
2023/03/28 14:15:21;;;;;;;3.93;1.10;;;;;;;;;;4997349;28;21368;-73
2023/03/28 14:17:46;;;;;;;2.20;1.00;;;;;;;;;;4993304;28;20204;-73
2023/03/28 14:20:15;;;;;;;3.57;1.00;;;;;;;;;;4995784;28;21087;-73
2023/03/28 14:22:42;;;;;;;4.63;1.57;;;;;;;;;;5013233;28;20198;-73
2023/03/28 14:25:10;;;;;;;4.13;1.40;;;;;;;;;;4997598;28;21475;-73
2023/03/28 14:27:37;;;;;;;4.90;1.40;;;;;;;;;;5000738;28;20815;-73
2023/03/28 14:30:15;;;;;;;3.40;1.13;;;;;;;;;;4999484;28;20440;-74
2023/03/28 14:32:49;;;;;;;7.23;1.50;;;;;;;;;;4997123;28;20577;-73
2023/03/28 14:35:19;;;;;;;4.50;1.70;;;;;;;;;;4999037;28;20441;-73
2023/03/28 14:37:50;;;;;;;3.67;1.20;;;;;;;;;;5012251;28;20937;-72
2023/03/28 14:40:35;;;;;;;2.47;0.90;;;;;;;;;;4998517;28;20428;-72
2023/03/28 14:43:05;;;;;;;4.03;1.30;;;;;;;;;;4990951;28;20451;-72
2023/03/28 14:45:33;;;;;;;5.53;1.70;;;;;;;;;;4993180;28;20909;-72
2023/03/28 14:47:59;;;;;;;9.00;1.20;;;;;;;;;;4985625;28;20548;-73
2023/03/28 14:50:27;;;;;;;3.87;1.27;;;;;;;;;;4991723;28;21003;-73
2023/03/28 14:52:52;;;;;;;2.20;1.40;;;;;;;;;;4981108;28;20206;-72
2023/03/28 14:55:22;;;;;;;4.73;1.17;;;;;;;;;;4981467;28;20806;-72